This is the latest recevied weather packets stored in our database for station/object HB9KBJ-8. If no packets are shown the sender has not sent any weather packets the latest 10 day(s).
| Time | Temp. | Humidity | Pressure | Rain* | Wind** | Luminosity | Snow |
|---|---|---|---|---|---|---|---|
| 1777729646 | 25.56° C | 36% | 1018.9 hPa | 0 mm | - | 619 W/m² | - |
| 1777729336 | 26.11° C | 36% | 1019 hPa | 0 mm | - | 598 W/m² | - |
| 1777729049 | 24.44° C | 37% | 1019.1 hPa | 0 mm | - | 608 W/m² | - |
| 1777728746 | 26.11° C | 34% | 1019.1 hPa | 0 mm | - | 587 W/m² | - |
| 1777728443 | 25.56° C | 36% | 1019.2 hPa | 0 mm | - | 610 W/m² | - |
| 1777728152 | 24.44° C | 36% | 1019.3 hPa | 0 mm | - | 642 W/m² | - |
| 1777727846 | 25° C | 37% | 1019.4 hPa | 0 mm | - | 689 W/m² | - |
| 1777727543 | 25.56° C | 38% | 1019.4 hPa | 0 mm | - | 728 W/m² | - |
| 1777727244 | 24.44° C | 38% | 1019.5 hPa | 0 mm | - | 733 W/m² | - |
| 1777726941 | 26.11° C | 38% | 1019.5 hPa | 0 mm | - | 719 W/m² | - |
| 1777726635 | 25.56° C | 39% | 1019.6 hPa | 0 mm | - | 729 W/m² | - |
| 1777726335 | 25° C | 40% | 1019.7 hPa | 0 mm | - | 707 W/m² | - |
| 1777726036 | 23.89° C | 42% | 1019.8 hPa | 0 mm | - | 661 W/m² | - |
| 1777725750 | 24.44° C | 43% | 1019.8 hPa | 0 mm | - | 668 W/m² | - |
| 1777725449 | 24.44° C | 42% | 1019.9 hPa | 0 mm | - | 733 W/m² | - |
| 1777725142 | 25° C | 41% | 1019.9 hPa | 0 mm | - | 763 W/m² | - |
| 1777724840 | 25.56° C | 41% | 1020.1 hPa | 0 mm | - | 802 W/m² | - |
| 1777724552 | 24.44° C | 44% | 1020.1 hPa | 0 mm | - | 780 W/m² | - |
| 1777724248 | 23.33° C | 44% | 1020.1 hPa | 0 mm | - | 795 W/m² | - |
| 1777723944 | 23.89° C | 44% | 1020.3 hPa | 0 mm | - | 796 W/m² | - |
| 1777723635 | 23.33° C | 46% | 1020.3 hPa | 0 mm | - | 789 W/m² | - |
| 1777723354 | 23.33° C | 46% | 1020.4 hPa | 0 mm | - | 789 W/m² | - |
| 1777723046 | 22.78° C | 47% | 1020.5 hPa | 0 mm | - | 789 W/m² | - |
| 1777722738 | 22.78° C | 46% | 1020.7 hPa | 0 mm | - | 796 W/m² | - |
| 1777722455 | 22.78° C | 46% | 1020.6 hPa | 0 mm | - | 758 W/m² | - |
* Rain latest hour (hover to see other rain measurements)
** Current wind speed in m/s (hover to see current wind gust speed)